Time;durP1;ratioP1;P1;durP2;ratioP2;P2;SDS_P1;SDS_P2;PMS_P1;PMS_P2;Temp;Humidity;BMP_temperature;BMP_pressure;BME280_temperature;BME280_humidity;BME280_pressure;Samples;Min_cycle;Max_cycle;Signal;HPM_P1;HPM_P2
2023/10/10 00:01:03;;;;;;;15.70;7.63;;;19.40;53.80;;;;;;5002310;28;20061;-45
2023/10/10 00:03:32;;;;;;;19.50;7.32;;;19.40;53.80;;;;;;4994725;28;20394;-46
2023/10/10 00:06:00;;;;;;;16.85;7.88;;;19.40;53.80;;;;;;5002157;28;20093;-48
2023/10/10 00:08:33;;;;;;;15.55;7.70;;;19.40;53.80;;;;;;4995356;28;20061;-44
2023/10/10 00:11:09;;;;;;;16.33;7.50;;;19.30;53.70;;;;;;5003385;28;20046;-49
2023/10/10 00:13:42;;;;;;;20.85;9.93;;;19.30;53.70;;;;;;4995371;28;20488;-45
2023/10/10 00:16:11;;;;;;;15.63;8.52;;;19.30;53.80;;;;;;4994811;28;20065;-46
2023/10/10 00:18:43;;;;;;;17.88;9.55;;;19.30;53.70;;;;;;5002221;28;20054;-48
2023/10/10 00:21:12;;;;;;;23.20;10.77;;;19.30;53.80;;;;;;5001572;28;20064;-47
2023/10/10 00:23:42;;;;;;;16.55;9.52;;;19.20;53.80;;;;;;5001976;28;20049;-46
2023/10/10 00:26:14;;;;;;;18.63;10.15;;;19.20;53.90;;;;;;5002777;28;20057;-47
2023/10/10 00:28:44;;;;;;;21.80;10.27;;;19.20;54.00;;;;;;5002074;28;20058;-46
2023/10/10 00:31:17;;;;;;;24.95;11.00;;;19.10;54.00;;;;;;5001591;28;20056;-47
2023/10/10 00:33:46;;;;;;;22.90;9.90;;;19.10;54.10;;;;;;5001525;28;20047;-47
2023/10/10 00:36:16;;;;;;;20.13;9.68;;;19.10;54.20;;;;;;4999580;28;20057;-47
2023/10/10 00:38:46;;;;;;;21.35;9.52;;;19.00;54.10;;;;;;4996736;28;20065;-48
2023/10/10 00:41:15;;;;;;;20.80;9.13;;;19.00;54.10;;;;;;5002809;28;20054;-50
2023/10/10 00:43:42;;;;;;;15.80;8.40;;;19.00;54.10;;;;;;5002268;28;20498;-48
2023/10/10 00:46:12;;;;;;;15.88;8.25;;;18.90;54.00;;;;;;5000941;28;20058;-49
2023/10/10 00:48:39;;;;;;;17.95;9.48;;;18.90;53.90;;;;;;5001524;28;20116;-45
2023/10/10 00:51:10;;;;;;;27.70;9.80;;;18.90;53.90;;;;;;4992843;28;20049;-48
2023/10/10 00:53:40;;;;;;;17.20;8.98;;;18.90;53.90;;;;;;5001832;28;20073;-47
2023/10/10 00:56:08;;;;;;;18.23;9.40;;;19.00;54.00;;;;;;5002270;28;20049;-50
2023/10/10 00:58:37;;;;;;;18.95;9.35;;;18.90;53.90;;;;;;5002266;28;20061;-49
2023/10/10 01:01:09;;;;;;;16.33;8.82;;;18.90;54.00;;;;;;5001476;28;20050;-50
2023/10/10 01:03:39;;;;;;;20.20;8.90;;;18.90;54.10;;;;;;5000815;28;20065;-47
2023/10/10 01:06:20;;;;;;;16.92;8.30;;;18.90;54.30;;;;;;5000409;28;20064;-49
2023/10/10 01:08:53;;;;;;;18.10;7.68;;;18.90;54.30;;;;;;5001958;28;20050;-49
2023/10/10 01:11:22;;;;;;;14.17;7.50;;;18.90;54.30;;;;;;5002239;28;20050;-47
2023/10/10 01:13:52;;;;;;;13.45;7.35;;;18.90;54.30;;;;;;5002546;28;20536;-49
2023/10/10 01:16:23;;;;;;;16.08;7.35;;;18.90;54.40;;;;;;4993298;28;20490;-46
2023/10/10 01:18:56;;;;;;;13.43;7.10;;;18.90;54.30;;;;;;5000373;28;20054;-48
2023/10/10 01:21:30;;;;;;;13.47;7.23;;;18.80;54.30;;;;;;5000675;28;20046;-49
2023/10/10 01:24:02;;;;;;;17.00;7.80;;;18.80;54.40;;;;;;5002306;28;20057;-45
2023/10/10 01:26:43;;;;;;;12.90;7.05;;;18.70;54.40;;;;;;5001310;28;20057;-50
2023/10/10 01:29:25;;;;;;;16.55;8.20;;;18.70;54.40;;;;;;5002441;28;20061;-46
2023/10/10 01:31:53;;;;;;;15.25;7.90;;;18.70;54.60;;;;;;5001081;28;20050;-50
2023/10/10 01:34:39;;;;;;;15.65;7.82;;;18.60;54.60;;;;;;5001455;28;20058;-49
2023/10/10 01:37:14;;;;;;;15.82;6.68;;;18.60;54.70;;;;;;5001268;28;20057;-47
2023/10/10 01:39:51;;;;;;;14.45;6.85;;;18.60;54.70;;;;;;5001200;28;20069;-47
2023/10/10 01:42:24;;;;;;;15.48;7.07;;;18.50;54.80;;;;;;5001744;28;20057;-51
2023/10/10 01:44:51;;;;;;;11.38;6.38;;;18.50;54.70;;;;;;5001481;28;20058;-48
2023/10/10 01:47:26;;;;;;;16.13;7.07;;;18.50;54.70;;;;;;5003410;28;20064;-48
2023/10/10 01:49:53;;;;;;;15.68;6.80;;;18.40;54.70;;;;;;5004918;28;20054;-47
2023/10/10 01:52:23;;;;;;;12.48;6.32;;;18.40;54.80;;;;;;5004497;28;20413;-49
2023/10/10 01:54:54;;;;;;;14.18;6.75;;;18.30;54.90;;;;;;5005111;28;20947;-48
2023/10/10 01:57:26;;;;;;;13.60;7.10;;;18.30;55.10;;;;;;5004422;28;20054;-50
2023/10/10 01:59:57;;;;;;;17.25;6.90;;;18.20;55.10;;;;;;5005446;28;20062;-51
2023/10/10 02:02:26;;;;;;;14.57;6.72;;;18.10;55.20;;;;;;5005453;28;20057;-49
2023/10/10 02:04:56;;;;;;;12.68;6.57;;;18.10;55.40;;;;;;5004351;28;20410;-48
2023/10/10 02:07:31;;;;;;;12.68;7.38;;;18.10;55.40;;;;;;5004509;28;20077;-47
2023/10/10 02:10:12;;;;;;;15.38;7.50;;;18.00;55.40;;;;;;5005651;28;20068;-47
2023/10/10 02:12:44;;;;;;;15.65;6.95;;;18.00;55.40;;;;;;4997770;28;20402;-50
2023/10/10 02:15:13;;;;;;;14.98;7.00;;;18.00;55.40;;;;;;5004163;28;20058;-48
2023/10/10 02:17:50;;;;;;;14.35;7.15;;;18.00;55.40;;;;;;5003596;28;20486;-48
2023/10/10 02:20:34;;;;;;;17.80;7.25;;;17.90;55.50;;;;;;5004117;28;20062;-47
2023/10/10 02:23:24;;;;;;;15.57;7.25;;;17.80;55.50;;;;;;5004547;28;20050;-49
2023/10/10 02:25:53;;;;;;;15.95;7.10;;;17.80;55.50;;;;;;5004119;28;20394;-48
2023/10/10 02:28:20;;;;;;;14.60;7.32;;;17.80;55.50;;;;;;5003967;28;20060;-49
2023/10/10 02:30:52;;;;;;;13.88;7.10;;;17.80;55.60;;;;;;5004142;28;20586;-48
2023/10/10 02:33:29;;;;;;;13.80;7.30;;;17.70;55.60;;;;;;5002968;28;20064;-48
2023/10/10 02:35:57;;;;;;;12.93;6.78;;;17.70;55.70;;;;;;5002544;28;20426;-47
2023/10/10 02:38:31;;;;;;;12.85;7.05;;;17.70;55.80;;;;;;5004335;28;20053;-49
2023/10/10 02:41:15;;;;;;;17.40;7.57;;;17.70;55.90;;;;;;5003693;28;20053;-49
2023/10/10 02:43:56;;;;;;;17.27;7.18;;;17.60;55.90;;;;;;5003368;28;20054;-45
2023/10/10 02:46:34;;;;;;;10.80;6.25;;;17.60;55.90;;;;;;5002749;28;20521;-50
2023/10/10 02:49:09;;;;;;;14.20;7.15;;;17.60;55.90;;;;;;5003750;28;20054;-46
2023/10/10 02:51:41;;;;;;;14.93;6.85;;;17.50;55.90;;;;;;5002411;28;20054;-48
2023/10/10 02:54:27;;;;;;;14.43;6.95;;;17.50;56.00;;;;;;5002666;28;20053;-45
2023/10/10 02:56:57;;;;;;;14.15;7.13;;;17.50;56.00;;;;;;4998995;28;20080;-47
2023/10/10 02:59:31;;;;;;;14.70;7.70;;;17.50;56.10;;;;;;5002987;28;20062;-46
2023/10/10 03:02:08;;;;;;;14.10;6.88;;;17.40;56.10;;;;;;5003210;28;20053;-48
2023/10/10 03:05:05;;;;;;;12.80;6.85;;;17.40;56.10;;;;;;5002472;28;20383;-46
2023/10/10 03:07:33;;;;;;;16.73;7.65;;;17.30;56.20;;;;;;5003076;28;20053;-47
2023/10/10 03:12:51;;;;;;;16.13;7.10;;;17.30;56.30;;;;;;4993431;28;20402;-50
2023/10/10 03:15:30;;;;;;;12.10;7.07;;;17.30;56.40;;;;;;4984116;28;20599;-47
2023/10/10 03:18:15;;;;;;;18.75;7.28;;;17.20;56.40;;;;;;5002573;28;20057;-47
2023/10/10 03:21:06;;;;;;;13.85;7.03;;;17.20;56.50;;;;;;4996943;28;20050;-47
2023/10/10 03:23:35;;;;;;;16.67;7.25;;;17.20;56.50;;;;;;5003277;28;20057;-48
2023/10/10 03:26:07;;;;;;;14.40;7.47;;;17.20;56.50;;;;;;5003209;28;20053;-46
2023/10/10 03:28:40;;;;;;;13.43;7.25;;;17.10;56.60;;;;;;5002451;28;20061;-47
2023/10/10 03:31:10;;;;;;;16.15;7.07;;;17.10;56.60;;;;;;5002167;28;20053;-46
2023/10/10 03:33:43;;;;;;;10.45;6.63;;;17.10;56.70;;;;;;5001874;28;20054;-48
2023/10/10 03:36:30;;;;;;;14.57;7.10;;;17.10;56.80;;;;;;5002510;28;20061;-48
2023/10/10 05:23:31;;;;;;;15.38;8.35;;;16.50;58.20;;;;;;5050997;28;19920;-47
2023/10/10 05:25:59;;;;;;;16.38;8.20;;;16.50;58.20;;;;;;5045043;28;20063;-49
2023/10/10 05:28:30;;;;;;;22.48;9.65;;;16.50;58.30;;;;;;5044468;28;20052;-47
2023/10/10 05:30:57;;;;;;;16.92;8.88;;;16.40;58.40;;;;;;5044801;28;20524;-45
2023/10/10 05:33:26;;;;;;;17.40;8.63;;;16.40;58.40;;;;;;5043537;28;20049;-47
2023/10/10 05:35:59;;;;;;;16.58;8.80;;;16.40;58.50;;;;;;5045534;28;20057;-48
2023/10/10 05:38:27;;;;;;;14.60;8.45;;;16.40;58.60;;;;;;5044901;28;20079;-45
2023/10/10 05:40:56;;;;;;;13.50;7.35;;;16.40;58.60;;;;;;5044513;28;20053;-48
2023/10/10 05:43:31;;;;;;;20.20;7.78;;;16.40;58.60;;;;;;5044483;28;20815;-47
2023/10/10 05:45:58;;;;;;;12.77;7.93;;;16.40;58.60;;;;;;5043902;28;20049;-48
2023/10/10 05:48:26;;;;;;;17.42;7.55;;;16.40;58.70;;;;;;5042707;28;20052;-45
2023/10/10 05:50:54;;;;;;;16.65;7.50;;;16.40;58.70;;;;;;5044289;28;20079;-48
2023/10/10 05:53:24;;;;;;;14.57;7.75;;;16.40;58.80;;;;;;5044250;28;20044;-50
2023/10/10 05:55:58;;;;;;;15.02;7.68;;;16.40;58.80;;;;;;5044195;28;20065;-47
2023/10/10 05:58:26;;;;;;;17.70;7.78;;;16.30;58.80;;;;;;5043459;28;20057;-49
2023/10/10 06:00:54;;;;;;;13.68;7.57;;;16.40;58.90;;;;;;5043602;28;20961;-49
2023/10/10 06:03:22;;;;;;;17.42;7.75;;;16.40;58.90;;;;;;5042900;28;20503;-47
2023/10/10 06:05:50;;;;;;;14.00;7.40;;;16.40;59.00;;;;;;5043482;28;20060;-48
2023/10/10 06:08:17;;;;;;;14.00;7.05;;;16.40;59.10;;;;;;5043498;28;20057;-48
2023/10/10 06:10:48;;;;;;;16.63;8.60;;;16.40;59.20;;;;;;5044344;28;20049;-45
2023/10/10 06:13:15;;;;;;;16.92;8.10;;;16.40;59.30;;;;;;5043625;28;20053;-47
2023/10/10 06:15:43;;;;;;;16.02;7.43;;;16.40;59.30;;;;;;5043547;28;20055;-46
2023/10/10 06:18:12;;;;;;;15.13;7.68;;;16.40;59.30;;;;;;5043601;28;20056;-47
2023/10/10 06:20:43;;;;;;;22.92;7.88;;;16.40;59.30;;;;;;5043445;28;20053;-50
2023/10/10 06:23:14;;;;;;;11.98;6.65;;;16.40;59.40;;;;;;5043573;28;20068;-47
2023/10/10 06:25:42;;;;;;;16.75;7.20;;;16.40;59.40;;;;;;5042986;28;20056;-47
2023/10/10 06:28:22;;;;;;;16.77;7.57;;;16.50;59.40;;;;;;5043785;28;20504;-48
2023/10/10 06:30:53;;;;;;;15.65;7.68;;;16.50;59.40;;;;;;5043274;28;20057;-46
2023/10/10 06:33:27;;;;;;;15.88;8.27;;;16.50;59.30;;;;;;5040709;28;20083;-47
2023/10/10 06:36:18;;;;;;;18.85;7.63;;;16.60;59.40;;;;;;5043269;28;20061;-45
2023/10/10 06:38:46;;;;;;;14.55;7.53;;;16.50;59.40;;;;;;5043400;28;20068;-47
2023/10/10 06:41:22;;;;;;;18.17;7.32;;;16.60;59.40;;;;;;5042952;28;20087;-45
2023/10/10 06:43:51;;;;;;;16.15;7.72;;;16.60;59.40;;;;;;5043751;28;20052;-45
2023/10/10 06:46:18;;;;;;;23.65;7.45;;;16.60;59.50;;;;;;5042431;28;20079;-47
2023/10/10 06:48:47;;;;;;;15.27;7.32;;;16.60;59.50;;;;;;5042785;28;20533;-52
2023/10/10 06:51:21;;;;;;;15.07;7.43;;;16.60;59.60;;;;;;5043464;28;20401;-46
2023/10/10 06:53:54;;;;;;;15.63;7.60;;;16.60;59.60;;;;;;5043743;28;20053;-48
2023/10/10 06:56:43;;;;;;;16.50;7.60;;;16.70;59.60;;;;;;5043269;28;20069;-44
2023/10/10 06:59:16;;;;;;;14.80;7.18;;;16.70;59.60;;;;;;5043269;28;20056;-44
2023/10/10 07:01:46;;;;;;;22.25;7.70;;;16.80;59.60;;;;;;5042133;28;20675;-50
2023/10/10 07:04:13;;;;;;;16.98;7.65;;;16.80;59.60;;;;;;5042399;28;20388;-47
2023/10/10 07:06:43;;;;;;;18.35;8.25;;;16.90;59.60;;;;;;5041601;28;20056;-48
2023/10/10 07:09:17;;;;;;;15.30;7.97;;;16.90;59.60;;;;;;5043512;28;20056;-45
2023/10/10 07:11:53;;;;;;;13.10;6.65;;;17.00;59.70;;;;;;5042641;28;20068;-47
2023/10/10 07:14:24;;;;;;;18.00;7.68;;;17.00;59.60;;;;;;5042374;28;20456;-48
2023/10/10 07:16:56;;;;;;;13.95;6.97;;;17.10;59.70;;;;;;5041986;28;20049;-47
2023/10/10 07:19:29;;;;;;;13.75;6.80;;;17.10;59.80;;;;;;5042132;28;20425;-47
2023/10/10 07:21:56;;;;;;;59.23;26.47;;;17.10;59.80;;;;;;5042243;28;20045;-45
2023/10/10 07:24:28;;;;;;;62.70;28.10;;;17.10;59.80;;;;;;5043304;28;20390;-50
2023/10/10 07:27:10;;;;;;;22.73;12.18;;;17.20;60.40;;;;;;5043496;28;20063;-46
2023/10/10 07:32:29;;;;;;;20.83;7.00;;;17.30;59.70;;;;;;5048093;28;20072;-46
2023/10/10 07:34:58;;;;;;;11.77;6.15;;;17.30;59.70;;;;;;5042129;28;20045;-46
2023/10/10 07:37:29;;;;;;;11.00;6.63;;;17.40;59.80;;;;;;5041899;28;20060;-48
2023/10/10 07:39:57;;;;;;;12.27;6.53;;;17.40;59.70;;;;;;5042283;28;20057;-46
2023/10/10 07:42:29;;;;;;;30.67;8.43;;;17.50;59.80;;;;;;5041556;28;20048;-47
2023/10/10 07:44:58;;;;;;;32.90;8.27;;;17.60;59.80;;;;;;5042207;28;20060;-48
2023/10/10 07:47:26;;;;;;;20.70;8.15;;;17.60;59.80;;;;;;5041747;28;20559;-49
2023/10/10 07:49:55;;;;;;;22.90;6.63;;;17.70;59.80;;;;;;5041553;28;20048;-45
2023/10/10 07:52:22;;;;;;;18.13;7.35;;;17.70;59.80;;;;;;5041721;28;20059;-47
2023/10/10 07:55:02;;;;;;;15.40;7.38;;;17.80;59.80;;;;;;5040135;28;20049;-48
2023/10/10 07:57:46;;;;;;;19.98;10.57;;;17.80;59.80;;;;;;5042795;28;20061;-43
2023/10/10 08:00:17;;;;;;;14.60;8.18;;;17.90;59.80;;;;;;5042478;28;20131;-45
2023/10/10 08:02:49;;;;;;;21.10;8.73;;;17.90;59.70;;;;;;5041289;28;20493;-47
2023/10/10 08:05:19;;;;;;;15.98;7.63;;;18.00;59.60;;;;;;5041745;28;20064;-46
2023/10/10 08:07:47;;;;;;;13.00;6.60;;;18.00;59.60;;;;;;5040698;28;20057;-46
2023/10/10 08:10:17;;;;;;;16.73;6.43;;;18.10;59.60;;;;;;5042451;28;20041;-48
2023/10/10 08:12:44;;;;;;;12.20;6.13;;;18.10;59.50;;;;;;5041690;28;20516;-47
2023/10/10 08:15:24;;;;;;;13.88;6.18;;;18.20;59.50;;;;;;5041991;28;20501;-45
2023/10/10 08:17:55;;;;;;;12.25;6.38;;;18.20;59.40;;;;;;5041201;28;20064;-46
2023/10/10 08:20:34;;;;;;;15.38;6.15;;;18.20;59.30;;;;;;5041186;28;20642;-45
2023/10/10 08:23:03;;;;;;;16.33;7.07;;;18.30;59.30;;;;;;5041500;28;20053;-45
2023/10/10 08:25:30;;;;;;;11.95;5.65;;;18.30;59.20;;;;;;5042359;28;20052;-47
2023/10/10 08:27:58;;;;;;;13.82;6.63;;;18.30;59.10;;;;;;5041544;28;20060;-46
2023/10/10 08:30:26;;;;;;;13.13;6.35;;;18.40;59.10;;;;;;5041410;28;20068;-45
2023/10/10 08:32:56;;;;;;;13.15;6.15;;;18.50;59.10;;;;;;5040958;28;20060;-45
2023/10/10 08:35:27;;;;;;;12.07;5.88;;;18.50;59.10;;;;;;5041105;28;20060;-44
2023/10/10 08:37:55;;;;;;;12.10;6.47;;;18.50;59.10;;;;;;5040494;28;20053;-51
2023/10/10 08:40:23;;;;;;;13.30;6.35;;;18.50;59.00;;;;;;5041441;28;20065;-47
2023/10/10 08:42:51;;;;;;;9.30;5.90;;;18.60;59.10;;;;;;5041730;28;20052;-47
2023/10/10 08:45:25;;;;;;;24.75;7.30;;;18.60;59.20;;;;;;5039131;28;20497;-46
2023/10/10 08:48:00;;;;;;;12.35;6.45;;;18.70;59.20;;;;;;5038115;28;20061;-44
2023/10/10 08:50:32;;;;;;;13.50;6.00;;;18.70;59.10;;;;;;5038750;28;20060;-45
2023/10/10 08:53:05;;;;;;;11.43;5.88;;;18.70;59.00;;;;;;5038581;28;20056;-44
2023/10/10 08:55:36;;;;;;;13.52;6.00;;;18.80;59.20;;;;;;5039601;28;20049;-48
2023/10/10 08:58:11;;;;;;;24.33;6.45;;;18.80;59.30;;;;;;5042820;28;20057;-45
2023/10/10 09:00:41;;;;;;;15.82;5.65;;;18.90;59.30;;;;;;5044870;28;20594;-45
2023/10/10 09:03:09;;;;;;;17.88;6.78;;;19.00;59.40;;;;;;5045469;28;20053;-47
2023/10/10 09:05:36;;;;;;;13.30;5.78;;;19.00;59.40;;;;;;5045253;28;20056;-45
2023/10/10 09:08:14;;;;;;;11.10;5.28;;;19.00;59.40;;;;;;5045283;28;20080;-46
2023/10/10 09:10:41;;;;;;;18.15;5.35;;;19.10;59.50;;;;;;5045496;28;20523;-48
2023/10/10 09:13:09;;;;;;;16.25;5.43;;;19.20;59.60;;;;;;5044552;28;20052;-50
2023/10/10 09:15:40;;;;;;;8.88;5.38;;;19.20;59.60;;;;;;5045322;28;20489;-43
2023/10/10 09:18:17;;;;;;;10.38;5.03;;;19.30;59.60;;;;;;5044825;28;20417;-46
2023/10/10 09:20:46;;;;;;;11.77;5.40;;;19.40;59.70;;;;;;5044697;28;20056;-46
2023/10/10 09:23:24;;;;;;;11.75;4.93;;;19.50;59.70;;;;;;5042510;28;20056;-45
2023/10/10 09:26:04;;;;;;;12.57;5.30;;;19.60;59.80;;;;;;5044842;28;20076;-45
2023/10/10 09:28:44;;;;;;;14.20;5.70;;;19.60;59.60;;;;;;5044866;28;20103;-46
2023/10/10 09:31:20;;;;;;;8.43;5.15;;;19.80;59.40;;;;;;5043736;28;20056;-46
2023/10/10 09:33:54;;;;;;;8.55;5.13;;;19.80;59.30;;;;;;5044799;28;20058;-48
2023/10/10 09:36:26;;;;;;;;;;;19.90;59.20;;;;;;5045254;28;20044;-47
2023/10/10 09:38:56;;;;;;;11.63;4.43;;;20.00;59.10;;;;;;5044880;28;19936;-44
2023/10/10 09:41:37;;;;;;;11.27;5.25;;;20.10;58.90;;;;;;5044447;28;20068;-44
2023/10/10 09:47:13;;;;;;;9.30;4.93;;;20.30;58.80;;;;;;5049853;28;20048;-46
2023/10/10 09:49:43;;;;;;;8.27;4.75;;;20.40;58.60;;;;;;5044318;28;20060;-47
2023/10/10 09:55:21;;;;;;;14.43;4.70;;;20.50;58.40;;;;;;5040106;28;20144;-46
2023/10/10 09:58:00;;;;;;;10.82;5.15;;;20.60;58.40;;;;;;5039904;28;20053;-48
2023/10/10 10:00:35;;;;;;;8.40;4.97;;;20.60;58.20;;;;;;5040728;28;20072;-46
2023/10/10 10:03:31;;;;;;;10.38;4.82;;;20.70;58.70;;;;;;5039866;28;20044;-47
2023/10/10 10:05:58;;;;;;;8.48;4.78;;;20.80;58.10;;;;;;5038778;28;20056;-46
2023/10/10 10:08:37;;;;;;;10.20;4.45;;;20.90;58.10;;;;;;5040214;28;20060;-46
2023/10/10 10:11:11;;;;;;;11.20;5.50;;;20.90;57.80;;;;;;5041984;28;20493;-48
2023/10/10 10:14:11;;;;;;;10.77;5.65;;;21.00;57.70;;;;;;5041582;28;20079;-46
2023/10/10 10:16:47;;;;;;;11.70;4.93;;;21.10;57.50;;;;;;5038940;28;20049;-47
2023/10/10 10:19:17;;;;;;;9.38;5.13;;;21.10;57.30;;;;;;5039438;28;20060;-51
2023/10/10 10:22:06;;;;;;;17.98;5.40;;;21.20;57.80;;;;;;5038034;28;20703;-46
2023/10/10 10:24:52;;;;;;;17.52;5.10;;;21.20;57.20;;;;;;5041055;28;20065;-47
2023/10/10 10:27:24;;;;;;;10.05;4.90;;;21.30;57.20;;;;;;5041540;28;20093;-45
2023/10/10 10:29:56;;;;;;;10.95;5.68;;;21.30;57.20;;;;;;5039550;28;20072;-44
2023/10/10 10:32:24;;;;;;;24.95;5.22;;;21.40;57.20;;;;;;5039448;28;20100;-46
2023/10/10 10:34:56;;;;;;;10.63;5.40;;;21.40;57.30;;;;;;5039978;28;20084;-48
2023/10/10 10:37:28;;;;;;;9.55;5.10;;;21.50;57.20;;;;;;5041381;28;20524;-43
2023/10/10 10:42:46;;;;;;;9.50;4.68;;;21.60;57.30;;;;;;5046876;28;20057;-48
2023/10/10 10:45:33;;;;;;;16.17;5.00;;;21.60;57.20;;;;;;5041560;28;20049;-48
2023/10/10 10:48:06;;;;;;;10.57;5.38;;;21.70;57.00;;;;;;5040427;28;20150;-48
2023/10/10 10:50:42;;;;;;;10.93;5.10;;;21.80;56.90;;;;;;5039893;28;20064;-45
2023/10/10 10:53:30;;;;;;;8.80;5.10;;;21.80;56.70;;;;;;5037016;28;20053;-46
2023/10/10 11:01:34;;;;;;;8.70;4.50;;;22.00;56.60;;;;;;5045293;28;20060;-46
2023/10/10 11:04:05;;;;;;;7.72;4.50;;;22.00;56.50;;;;;;5041062;28;20351;-50
2023/10/10 11:06:33;;;;;;;8.57;5.10;;;22.00;56.30;;;;;;5040734;28;20053;-45
2023/10/10 11:09:23;;;;;;;9.63;4.47;;;22.10;56.40;;;;;;5041790;28;20485;-48
2023/10/10 11:11:57;;;;;;;10.90;4.93;;;22.10;56.30;;;;;;5039989;28;20049;-49
2023/10/10 11:14:28;;;;;;;10.52;4.97;;;22.20;56.20;;;;;;5040273;28;20060;-48
2023/10/10 11:16:57;;;;;;;12.80;4.68;;;22.20;55.90;;;;;;5039507;28;20489;-47
2023/10/10 11:22:38;;;;;;;9.88;5.50;;;22.30;55.70;;;;;;5017253;28;20041;-50
2023/10/10 11:25:11;;;;;;;9.85;5.38;;;22.30;55.70;;;;;;5041245;28;20060;-52
2023/10/10 11:27:44;;;;;;;8.98;5.13;;;22.30;55.50;;;;;;5041000;28;20489;-49
2023/10/10 11:30:12;;;;;;;11.02;4.95;;;22.40;55.70;;;;;;5038784;28;20056;-45
2023/10/10 11:32:46;;;;;;;9.25;4.90;;;22.40;55.50;;;;;;5038607;28;20053;-48
2023/10/10 11:35:25;;;;;;;13.13;5.78;;;22.40;55.30;;;;;;5039036;28;20057;-45
2023/10/10 11:38:00;;;;;;;9.20;4.43;;;22.40;55.20;;;;;;5040139;28;20052;-48
2023/10/10 11:40:32;;;;;;;10.75;5.13;;;22.40;55.20;;;;;;5038701;28;20524;-48
2023/10/10 11:43:03;;;;;;;7.80;4.22;;;22.50;55.10;;;;;;5038850;28;20087;-49
2023/10/10 11:45:31;;;;;;;12.05;4.90;;;22.50;55.10;;;;;;5040867;28;20056;-47
2023/10/10 11:48:00;;;;;;;13.93;4.90;;;22.50;55.20;;;;;;5038243;28;20060;-49
2023/10/10 11:50:43;;;;;;;8.88;5.10;;;22.50;55.10;;;;;;5040204;28;20052;-47
2023/10/10 11:53:14;;;;;;;10.00;5.00;;;22.50;55.00;;;;;;5040764;28;20049;-45
2023/10/10 11:55:42;;;;;;;11.27;5.72;;;22.60;55.00;;;;;;5040409;28;20482;-46
2023/10/10 11:58:16;;;;;;;13.13;5.38;;;22.60;54.90;;;;;;5039949;28;20053;-47
2023/10/10 12:00:44;;;;;;;7.75;5.07;;;22.60;54.90;;;;;;5039439;28;20421;-45
2023/10/10 12:03:12;;;;;;;8.00;4.93;;;22.70;55.00;;;;;;5038210;28;20048;-46
2023/10/10 12:05:48;;;;;;;10.07;5.18;;;22.70;54.90;;;;;;5037528;28;20053;-47
2023/10/10 12:08:15;;;;;;;9.38;5.03;;;22.70;54.80;;;;;;5039958;28;20166;-49
2023/10/10 12:10:49;;;;;;;10.80;5.30;;;22.80;54.90;;;;;;5040107;28;20055;-48
2023/10/10 12:13:34;;;;;;;7.80;4.70;;;22.80;54.80;;;;;;5039677;28;20064;-46
2023/10/10 12:16:07;;;;;;;7.47;4.57;;;22.80;54.90;;;;;;5039668;28;20064;-46
2023/10/10 12:18:34;;;;;;;9.90;4.68;;;22.80;55.00;;;;;;5039660;28;20057;-46
2023/10/10 12:21:03;;;;;;;10.07;4.68;;;22.90;55.00;;;;;;5037283;28;20056;-48
2023/10/10 12:23:31;;;;;;;10.40;4.68;;;22.90;54.90;;;;;;5039221;28;20412;-44
2023/10/10 12:26:00;;;;;;;8.98;4.88;;;23.00;54.90;;;;;;5038766;28;20052;-46
2023/10/10 12:28:27;;;;;;;10.63;4.68;;;23.00;54.70;;;;;;5038696;28;20056;-46
2023/10/10 12:30:57;;;;;;;11.63;4.72;;;23.00;54.60;;;;;;5036936;28;20056;-46
2023/10/10 12:33:25;;;;;;;10.48;4.90;;;23.10;54.50;;;;;;5038749;28;20417;-48
2023/10/10 12:35:52;;;;;;;9.32;4.68;;;23.10;54.30;;;;;;5039194;28;20049;-45
2023/10/10 12:38:21;;;;;;;8.88;4.55;;;23.20;54.40;;;;;;5039138;28;20057;-45
2023/10/10 12:40:49;;;;;;;10.93;4.70;;;23.20;54.10;;;;;;5039650;28;21010;-46
2023/10/10 12:43:18;;;;;;;8.70;4.20;;;23.20;54.10;;;;;;5041643;28;20060;-49
2023/10/10 12:45:47;;;;;;;7.55;4.63;;;23.30;54.20;;;;;;5041347;28;20063;-45
2023/10/10 12:48:20;;;;;;;8.18;4.50;;;23.30;54.30;;;;;;5040185;28;20611;-46
2023/10/10 12:50:48;;;;;;;9.13;4.63;;;23.40;54.30;;;;;;5041440;28;20417;-45
2023/10/10 12:53:16;;;;;;;11.73;4.97;;;23.40;54.20;;;;;;5041166;28;20128;-46
2023/10/10 12:55:55;;;;;;;16.80;5.05;;;23.40;54.10;;;;;;5041813;28;20069;-46
2023/10/10 12:58:24;;;;;;;9.40;4.15;;;23.40;54.00;;;;;;5041956;28;20068;-45
2023/10/10 13:00:52;;;;;;;11.23;4.70;;;23.50;53.90;;;;;;5041629;28;20060;-46
2023/10/10 13:03:22;;;;;;;11.18;4.65;;;23.50;53.90;;;;;;5039782;28;20060;-45
2023/10/10 13:05:52;;;;;;;15.13;5.45;;;23.60;54.00;;;;;;5040447;28;20056;-48
2023/10/10 13:08:20;;;;;;;13.40;4.80;;;23.60;53.80;;;;;;5041394;28;20052;-46
2023/10/10 13:10:54;;;;;;;9.20;4.50;;;23.70;53.60;;;;;;5041168;28;20057;-45
2023/10/10 13:13:31;;;;;;;9.18;4.60;;;23.70;53.80;;;;;;5041403;28;20052;-43
2023/10/10 13:16:22;;;;;;;10.00;4.22;;;23.70;53.70;;;;;;5041187;28;20061;-44
2023/10/10 13:18:50;;;;;;;7.40;4.18;;;23.80;54.00;;;;;;5040081;28;20393;-46
2023/10/10 13:21:19;;;;;;;10.77;4.68;;;23.80;53.70;;;;;;5040351;28;20508;-44
2023/10/10 13:23:47;;;;;;;7.63;4.10;;;23.80;53.30;;;;;;5040772;28;20053;-48
2023/10/10 13:26:16;;;;;;;8.80;4.20;;;23.90;53.40;;;;;;5040821;28;20520;-47
2023/10/10 13:28:45;;;;;;;8.98;4.60;;;23.90;53.50;;;;;;5040854;28;20049;-45
2023/10/10 13:31:13;;;;;;;13.75;4.63;;;23.90;53.70;;;;;;5041574;28;20056;-47
2023/10/10 13:33:41;;;;;;;9.13;4.43;;;24.00;53.50;;;;;;5040238;28;20067;-46
2023/10/10 13:36:11;;;;;;;9.10;4.70;;;24.00;53.20;;;;;;5039461;28;20049;-46
2023/10/10 13:38:41;;;;;;;8.77;4.38;;;24.00;52.90;;;;;;5040294;28;20090;-43
2023/10/10 13:41:09;;;;;;;8.98;4.00;;;24.10;52.80;;;;;;5039649;28;20052;-46
2023/10/10 13:43:41;;;;;;;9.32;4.40;;;24.10;52.90;;;;;;5043229;28;20059;-48
2023/10/10 13:46:09;;;;;;;8.10;4.18;;;24.10;52.80;;;;;;5044549;28;20053;-47
2023/10/10 13:48:37;;;;;;;8.18;4.25;;;24.10;52.90;;;;;;5044322;28;20544;-46
2023/10/10 13:51:07;;;;;;;7.90;3.92;;;24.10;52.90;;;;;;5043327;28;20060;-46
2023/10/10 13:53:35;;;;;;;13.40;4.97;;;24.10;52.90;;;;;;5044454;28;20053;-44
2023/10/10 13:56:03;;;;;;;10.98;4.50;;;24.10;52.90;;;;;;5043162;28;20508;-46
2023/10/10 13:58:31;;;;;;;13.30;4.65;;;24.10;52.80;;;;;;5044605;28;20385;-46
2023/10/10 14:01:14;;;;;;;7.22;3.88;;;24.10;52.80;;;;;;5044324;28;20065;-44
2023/10/10 14:03:46;;;;;;;7.88;3.90;;;24.20;53.00;;;;;;5039918;28;20109;-46
2023/10/10 14:06:16;;;;;;;8.38;4.20;;;24.10;52.90;;;;;;5042009;28;20057;-47
2023/10/10 14:08:47;;;;;;;12.60;4.85;;;24.20;52.80;;;;;;5042039;28;20045;-44
2023/10/10 14:11:20;;;;;;;8.52;4.38;;;24.20;52.70;;;;;;5037959;28;20056;-47
2023/10/10 14:13:49;;;;;;;8.98;4.70;;;24.20;52.60;;;;;;5039405;28;21001;-45
2023/10/10 14:16:16;;;;;;;5.95;3.67;;;24.20;52.80;;;;;;5039605;28;20057;-46
2023/10/10 14:18:47;;;;;;;8.10;4.82;;;24.20;52.70;;;;;;5041333;28;20060;-46
2023/10/10 14:21:17;;;;;;;8.60;4.30;;;24.20;52.60;;;;;;5039082;28;20053;-45
2023/10/10 14:23:45;;;;;;;9.57;4.68;;;24.20;52.70;;;;;;5041267;28;20420;-45
2023/10/10 14:26:14;;;;;;;10.05;4.53;;;24.20;52.60;;;;;;5040140;28;20048;-48
2023/10/10 14:28:48;;;;;;;7.80;4.13;;;24.20;52.50;;;;;;5040207;28;20060;-45
2023/10/10 14:31:17;;;;;;;13.60;4.78;;;24.20;52.50;;;;;;5041032;28;20060;-45
2023/10/10 14:33:46;;;;;;;12.25;4.90;;;24.30;52.70;;;;;;5041392;28;20421;-44
2023/10/10 14:36:13;;;;;;;10.10;4.38;;;24.20;52.60;;;;;;5038943;28;20057;-48
2023/10/10 14:38:44;;;;;;;9.93;4.25;;;24.20;52.40;;;;;;5040886;28;20488;-45
2023/10/10 14:41:16;;;;;;;11.20;4.45;;;24.20;52.50;;;;;;5042508;28;20060;-47
2023/10/10 14:43:47;;;;;;;9.70;4.43;;;24.30;52.40;;;;;;5041940;28;20060;-44
2023/10/10 14:46:21;;;;;;;8.18;4.78;;;24.30;52.40;;;;;;5041714;28;20060;-49
2023/10/10 14:48:51;;;;;;;10.13;4.60;;;24.30;52.40;;;;;;5037798;28;20051;-44
2023/10/10 14:51:18;;;;;;;12.35;4.55;;;24.30;52.20;;;;;;5040830;28;20064;-47
2023/10/10 14:53:51;;;;;;;8.50;3.97;;;24.30;52.20;;;;;;5039922;28;20048;-45
2023/10/10 14:56:22;;;;;;;10.73;5.00;;;24.30;52.20;;;;;;5040836;28;20052;-47
2023/10/10 14:58:51;;;;;;;9.73;4.10;;;24.30;52.20;;;;;;5040942;28;20059;-46
2023/10/10 15:01:20;;;;;;;9.20;4.32;;;24.20;52.10;;;;;;5041281;28;20053;-46
2023/10/10 15:03:50;;;;;;;10.52;4.55;;;24.20;52.20;;;;;;5039946;28;20064;-44
2023/10/10 15:06:22;;;;;;;12.50;4.22;;;24.20;52.20;;;;;;5040370;28;20509;-47
2023/10/10 15:08:49;;;;;;;7.78;4.10;;;24.20;52.10;;;;;;5042073;28;20044;-47
2023/10/10 15:11:16;;;;;;;9.90;4.20;;;24.20;52.10;;;;;;5038482;28;20056;-47